createdAt,value
2022-09-14T00:00:58.478Z,13.94
2022-09-14T00:03:33.846Z,13.84
2022-09-14T00:06:06.590Z,13.94
2022-09-14T00:08:33.079Z,14.19
2022-09-14T00:11:00.469Z,14.32
2022-09-14T00:13:26.805Z,14.42
2022-09-14T00:15:53.134Z,14.42
2022-09-14T00:18:19.450Z,14.36
2022-09-14T00:20:45.782Z,14.29
2022-09-14T00:23:12.085Z,14.36
2022-09-14T00:25:38.428Z,14.34
2022-09-14T00:28:04.801Z,14.44
2022-09-14T00:30:31.126Z,14.41
2022-09-14T00:32:57.435Z,14.49
2022-09-14T00:35:23.769Z,14.56
2022-09-14T00:37:51.225Z,14.52
2022-09-14T00:40:18.785Z,14.52
2022-09-14T00:42:45.127Z,14.48
2022-09-14T00:45:21.346Z,14.35
2022-09-14T00:47:48.048Z,14.28
2022-09-14T00:50:14.499Z,14.39
2022-09-14T00:52:41.804Z,14.31
2022-09-14T00:55:12.196Z,14.30
2022-09-14T00:57:56.641Z,14.40
2022-09-14T01:00:23.798Z,14.45
2022-09-14T01:02:50.223Z,14.53
2022-09-14T01:05:16.714Z,14.55
2022-09-14T01:08:02.095Z,14.40
2022-09-14T01:10:31.604Z,14.43
2022-09-14T01:13:16.804Z,14.43
2022-09-14T01:15:56.805Z,14.42
2022-09-14T01:18:31.699Z,14.43
2022-09-14T01:20:58.680Z,14.43
2022-09-14T01:23:40.209Z,14.45
2022-09-14T01:26:09.318Z,14.43
2022-09-14T01:28:36.525Z,14.41
2022-09-14T01:31:03.511Z,14.39
2022-09-14T01:33:35.117Z,14.45
2022-09-14T01:36:01.725Z,14.33
2022-09-14T01:38:35.627Z,14.12
2022-09-14T01:41:03.001Z,14.03
2022-09-14T01:43:40.695Z,13.98
2022-09-14T01:46:10.190Z,13.92
2022-09-14T01:48:43.189Z,13.79
2022-09-14T01:51:10.939Z,13.85
2022-09-14T01:53:41.774Z,14.11
2022-09-14T01:56:15.258Z,13.85
2022-09-14T01:58:55.133Z,13.86
2022-09-14T02:01:25.228Z,13.62
2022-09-14T02:03:52.583Z,13.53
2022-09-14T02:06:21.813Z,13.52
2022-09-14T02:08:48.157Z,13.54
2022-09-14T02:11:14.497Z,13.47
2022-09-14T02:13:40.820Z,13.73
2022-09-14T02:16:07.254Z,13.63
2022-09-14T02:18:33.602Z,13.51
2022-09-14T02:21:01.647Z,13.45
2022-09-14T02:23:27.971Z,13.48
2022-09-14T02:25:54.457Z,13.72
2022-09-14T02:28:20.810Z,13.82
2022-09-14T02:31:06.423Z,13.60
2022-09-14T02:33:40.485Z,13.64
2022-09-14T02:36:12.395Z,13.67
2022-09-14T02:38:38.665Z,13.63
2022-09-14T02:41:17.223Z,13.52
2022-09-14T02:43:46.531Z,13.52
2022-09-14T02:46:22.085Z,13.74
2022-09-14T02:48:52.111Z,13.81
2022-09-14T02:51:18.461Z,13.69
2022-09-14T02:53:49.563Z,13.73
2022-09-14T02:56:15.917Z,13.92
2022-09-14T02:58:42.694Z,14.03
2022-09-14T03:01:10.622Z,14.13
2022-09-14T03:03:36.983Z,13.97
2022-09-14T03:06:03.578Z,14.02
2022-09-14T03:08:29.976Z,14.03
2022-09-14T03:10:56.435Z,13.76
2022-09-14T03:13:22.816Z,13.61
2022-09-14T03:15:49.198Z,13.56
2022-09-14T03:18:15.590Z,13.44
2022-09-14T03:20:41.969Z,13.30
2022-09-14T03:23:09.172Z,13.28
2022-09-14T03:25:39.858Z,13.18
2022-09-14T03:28:06.355Z,13.20
2022-09-14T03:30:32.771Z,13.39
2022-09-14T03:32:59.242Z,13.08
2022-09-14T03:35:25.569Z,12.96
2022-09-14T03:37:51.897Z,13.09
2022-09-14T03:40:21.873Z,13.04
2022-09-14T03:42:49.128Z,13.03
2022-09-14T03:45:15.690Z,13.22
2022-09-14T03:47:42.025Z,12.96
2022-09-14T03:50:08.795Z,12.86
2022-09-14T03:52:35.497Z,13.05
2022-09-14T03:55:01.876Z,13.16
2022-09-14T03:57:28.196Z,13.21
2022-09-14T03:59:54.537Z,13.13
2022-09-14T04:02:20.901Z,13.23
2022-09-14T04:04:48.267Z,13.28
2022-09-14T04:07:17.355Z,13.10
2022-09-14T04:09:43.701Z,12.95
2022-09-14T04:12:10.106Z,12.91
2022-09-14T04:14:36.436Z,13.01
2022-09-14T04:17:02.762Z,12.92
2022-09-14T04:19:29.091Z,13.00
2022-09-14T04:21:55.407Z,13.17
2022-09-14T04:24:23.725Z,13.02
2022-09-14T04:26:51.832Z,13.02
2022-09-14T04:29:18.155Z,12.98
2022-09-14T04:31:44.624Z,13.16
2022-09-14T04:34:11.794Z,13.05
2022-09-14T04:36:38.147Z,13.02
2022-09-14T04:39:04.587Z,12.90
2022-09-14T04:41:31.053Z,13.00
2022-09-14T04:43:59.774Z,13.06
2022-09-14T04:46:27.702Z,13.10
2022-09-14T04:48:54.096Z,13.11
2022-09-14T04:51:21.567Z,13.06
2022-09-14T04:53:49.931Z,12.97
2022-09-14T04:56:16.301Z,12.89
2022-09-14T04:58:43.365Z,12.89
2022-09-14T05:01:10.393Z,12.95
2022-09-14T05:03:38.896Z,13.12
2022-09-14T05:06:05.844Z,13.15
2022-09-14T05:08:32.867Z,12.95
2022-09-14T05:10:59.236Z,12.86
2022-09-14T05:13:25.970Z,12.77
2022-09-14T05:15:52.365Z,12.91
2022-09-14T05:18:18.776Z,12.92
2022-09-14T05:20:45.113Z,12.90
2022-09-14T05:23:11.435Z,12.95
2022-09-14T05:25:37.794Z,13.03
2022-09-14T05:28:04.127Z,13.14
2022-09-14T05:30:30.473Z,13.08
2022-09-14T05:32:58.167Z,13.10
2022-09-14T05:35:24.621Z,13.04
2022-09-14T05:37:50.951Z,13.04
2022-09-14T05:40:17.418Z,12.97
2022-09-14T05:42:43.812Z,13.17
2022-09-14T05:45:10.358Z,13.20
2022-09-14T05:47:39.120Z,13.41
2022-09-14T05:50:05.984Z,13.32
2022-09-14T05:52:32.316Z,13.42
2022-09-14T05:54:58.669Z,13.30
2022-09-14T05:57:25.005Z,13.34
2022-09-14T05:59:51.369Z,13.39
2022-09-14T06:02:18.404Z,13.52
2022-09-14T06:04:44.979Z,13.50
2022-09-14T06:07:19.176Z,13.53
2022-09-14T06:09:45.714Z,13.60
2022-09-14T06:12:12.160Z,13.65
2022-09-14T06:14:38.533Z,13.55
2022-09-14T06:17:05.748Z,13.66
2022-09-14T06:19:32.089Z,13.78
2022-09-14T06:21:58.485Z,13.86
2022-09-14T06:24:25.006Z,13.75
2022-09-14T06:26:51.335Z,13.87
2022-09-14T06:29:17.686Z,13.77
2022-09-14T06:31:44.077Z,13.80
2022-09-14T06:34:10.505Z,13.92
2022-09-14T06:36:36.905Z,14.01
2022-09-14T06:39:03.302Z,14.09
2022-09-14T06:41:32.545Z,14.15
2022-09-14T06:43:59.140Z,14.24
2022-09-14T06:46:26.645Z,14.30
2022-09-14T06:48:55.195Z,14.33
2022-09-14T06:51:23.422Z,14.40
2022-09-14T06:53:49.861Z,14.41
2022-09-14T06:56:16.284Z,14.31
2022-09-14T06:58:42.609Z,14.35
2022-09-14T07:01:13.038Z,14.38
2022-09-14T07:03:39.453Z,14.48
2022-09-14T07:06:06.531Z,14.53
2022-09-14T07:08:36.267Z,14.58
2022-09-14T07:11:02.665Z,14.70
2022-09-14T07:13:29.122Z,14.75
2022-09-14T07:15:55.735Z,14.80
2022-09-14T07:18:22.533Z,14.81
2022-09-14T07:20:49.522Z,14.89
2022-09-14T07:23:15.925Z,14.80
2022-09-14T07:25:42.393Z,14.83
2022-09-14T07:28:08.719Z,14.93
2022-09-14T07:30:35.731Z,15.04
2022-09-14T07:33:02.098Z,14.96
2022-09-14T07:35:28.447Z,14.87
2022-09-14T07:37:54.885Z,14.74
2022-09-14T07:40:23.527Z,14.85
2022-09-14T07:42:53.345Z,14.90
2022-09-14T07:45:23.175Z,14.84
2022-09-14T07:47:49.509Z,14.89
2022-09-14T07:50:15.989Z,14.90
2022-09-14T07:52:42.325Z,14.80
2022-09-14T07:55:09.020Z,14.84
2022-09-14T07:57:55.188Z,14.90
2022-09-14T08:00:22.027Z,14.88
2022-09-14T08:02:52.215Z,15.03
2022-09-14T08:05:19.751Z,15.13
2022-09-14T08:07:46.077Z,15.22
2022-09-14T08:10:12.415Z,15.31
2022-09-14T08:12:38.750Z,15.25
2022-09-14T08:15:05.385Z,15.53
2022-09-14T08:17:31.790Z,15.52
2022-09-14T08:19:58.141Z,15.61
2022-09-14T08:22:25.552Z,15.41
2022-09-14T08:24:52.025Z,15.33
2022-09-14T08:27:18.353Z,15.44
2022-09-14T08:29:44.701Z,15.59
2022-09-14T08:32:11.704Z,15.71
2022-09-14T08:34:38.066Z,15.90
2022-09-14T08:37:04.417Z,15.83
2022-09-14T08:39:30.775Z,15.77
2022-09-14T08:41:58.511Z,15.78
2022-09-14T08:44:24.831Z,15.86
2022-09-14T08:46:52.027Z,15.87
2022-09-14T08:49:20.899Z,16.04
2022-09-14T08:51:47.254Z,16.06
2022-09-14T08:54:13.602Z,15.90
2022-09-14T08:56:44.644Z,16.03
2022-09-14T08:59:17.819Z,16.06
2022-09-14T09:01:47.195Z,16.20
2022-09-14T09:04:17.504Z,16.30
2022-09-14T09:06:53.145Z,16.35
2022-09-14T09:09:22.940Z,16.40
2022-09-14T09:11:50.056Z,16.43
2022-09-14T09:14:24.025Z,16.55
2022-09-14T09:16:51.366Z,16.67
2022-09-14T09:19:19.411Z,16.77
2022-09-14T09:21:46.028Z,16.69
2022-09-14T09:24:31.080Z,16.59
2022-09-14T09:26:58.720Z,16.72
2022-09-14T09:29:25.091Z,16.74
2022-09-14T09:31:52.224Z,16.79
2022-09-14T09:34:21.426Z,16.88
2022-09-14T09:36:48.200Z,17.01
2022-09-14T09:39:14.623Z,16.95
2022-09-14T09:41:45.217Z,16.88
2022-09-14T09:44:11.605Z,16.80
2022-09-14T09:46:38.844Z,16.84
2022-09-14T09:49:14.591Z,16.70
2022-09-14T09:51:40.927Z,16.71
2022-09-14T09:54:13.340Z,16.51
2022-09-14T09:56:59.984Z,16.60
2022-09-14T09:59:32.420Z,16.74
2022-09-14T10:02:17.421Z,16.75
2022-09-14T10:04:56.589Z,16.63
2022-09-14T10:07:22.924Z,16.37
2022-09-14T10:09:58.488Z,16.37
2022-09-14T10:12:24.819Z,16.34
2022-09-14T10:14:51.201Z,16.35
2022-09-14T10:17:18.141Z,16.19
2022-09-14T10:19:52.308Z,16.31
2022-09-14T10:22:24.290Z,16.25
2022-09-14T10:24:57.128Z,16.29
2022-09-14T10:27:37.718Z,16.23
2022-09-14T10:30:04.700Z,16.19
2022-09-14T10:32:31.227Z,16.24
2022-09-14T10:34:57.745Z,16.32
2022-09-14T10:37:37.412Z,16.36
2022-09-14T10:40:16.840Z,16.30
2022-09-14T10:42:51.951Z,16.34
2022-09-14T10:45:24.320Z,16.41
2022-09-14T10:48:09.867Z,16.46
2022-09-14T10:50:36.421Z,16.40
2022-09-14T10:53:02.798Z,16.45
2022-09-14T10:55:36.851Z,16.53
2022-09-14T10:58:07.378Z,16.70
2022-09-14T11:00:37.072Z,16.89
2022-09-14T11:03:22.117Z,17.12
2022-09-14T11:06:02.663Z,17.34
2022-09-14T11:08:33.278Z,17.43
2022-09-14T11:11:11.426Z,17.53
2022-09-14T11:13:44.270Z,17.83
2022-09-14T11:16:29.767Z,18.04
2022-09-14T11:19:11.734Z,18.16
2022-09-14T11:21:44.198Z,18.32
2022-09-14T11:24:16.335Z,18.11
2022-09-14T11:26:43.789Z,17.84
2022-09-14T11:29:28.988Z,17.76
2022-09-14T11:32:19.383Z,17.69
2022-09-14T11:34:57.840Z,17.60
2022-09-14T11:37:30.954Z,17.47
2022-09-14T11:40:06.989Z,17.33
2022-09-14T11:42:35.325Z,17.06
2022-09-14T11:45:21.919Z,17.09
2022-09-14T11:47:51.401Z,17.08
2022-09-14T11:50:25.679Z,17.08
2022-09-14T11:52:56.425Z,17.06
2022-09-14T11:55:27.669Z,16.93
2022-09-14T11:57:54.035Z,16.91
2022-09-14T12:00:26.631Z,16.89
2022-09-14T12:02:56.082Z,16.81
2022-09-14T12:05:22.423Z,16.77
2022-09-14T12:07:50.186Z,16.64
2022-09-14T12:10:19.521Z,16.54
2022-09-14T12:12:55.782Z,16.56
2022-09-14T12:15:30.984Z,16.40
2022-09-14T12:18:06.495Z,16.26
2022-09-14T12:20:45.543Z,16.35
2022-09-14T12:23:21.024Z,16.18
2022-09-14T12:26:12.464Z,16.19
2022-09-14T12:28:48.714Z,16.22
2022-09-14T12:31:31.011Z,16.30
2022-09-14T12:34:05.074Z,16.17
2022-09-14T12:36:37.387Z,16.20
2022-09-14T12:39:19.911Z,16.19
2022-09-14T12:41:46.307Z,16.15
2022-09-14T12:44:31.732Z,16.15
2022-09-14T12:46:58.100Z,15.99
2022-09-14T12:49:26.236Z,15.92
2022-09-14T12:51:52.667Z,15.99
2022-09-14T12:54:25.199Z,15.81
2022-09-14T12:56:57.293Z,15.81
2022-09-14T12:59:44.781Z,15.77
2022-09-14T13:02:23.535Z,15.75
2022-09-14T13:04:52.645Z,15.66
2022-09-14T13:07:19.547Z,15.71
2022-09-14T13:09:47.748Z,15.77
2022-09-14T13:12:14.266Z,15.74
2022-09-14T13:14:40.593Z,15.79
2022-09-14T13:17:06.945Z,15.84
2022-09-14T13:19:33.505Z,15.86
2022-09-14T13:22:00.565Z,15.82
2022-09-14T13:24:37.322Z,15.77
2022-09-14T13:27:03.665Z,15.93
2022-09-14T13:29:31.086Z,15.85
2022-09-14T13:32:03.083Z,15.88
2022-09-14T13:34:30.784Z,15.72
2022-09-14T13:36:57.313Z,15.79
2022-09-14T13:39:24.657Z,15.62
2022-09-14T13:41:51.020Z,15.34
2022-09-14T13:44:17.347Z,15.02
2022-09-14T13:46:43.722Z,14.80
2022-09-14T13:49:10.305Z,14.78
2022-09-14T13:51:36.843Z,14.62
2022-09-14T13:54:26.589Z,14.42
2022-09-14T13:57:12.381Z,14.37
2022-09-14T13:59:59.406Z,14.20
2022-09-14T14:02:26.004Z,14.14
2022-09-14T14:04:52.406Z,14.10
2022-09-14T14:07:22.298Z,14.37
2022-09-14T14:09:52.165Z,14.28
2022-09-14T14:12:28.169Z,14.18
2022-09-14T14:14:58.820Z,13.87
2022-09-14T14:17:28.240Z,13.89
2022-09-14T14:19:55.363Z,13.78
2022-09-14T14:22:26.260Z,13.74
2022-09-14T14:27:42.999Z,13.92
2022-09-14T14:30:13.792Z,14.01
2022-09-14T14:32:40.349Z,13.81
2022-09-14T14:35:14.692Z,13.66
2022-09-14T14:37:41.011Z,13.80
2022-09-14T14:40:08.301Z,13.99
2022-09-14T14:42:35.051Z,13.86
2022-09-14T14:45:01.464Z,13.95
2022-09-14T14:47:27.780Z,13.90
2022-09-14T14:49:54.106Z,14.04
2022-09-14T14:52:20.424Z,14.05
2022-09-14T14:54:46.757Z,13.84
2022-09-14T14:57:13.379Z,13.73
2022-09-14T14:59:39.809Z,13.86
2022-09-14T15:02:06.859Z,13.72
2022-09-14T15:04:33.199Z,13.74
2022-09-14T15:06:59.518Z,13.83
2022-09-14T15:09:27.322Z,14.00
2022-09-14T15:11:56.703Z,14.25
2022-09-14T15:14:26.736Z,14.36
2022-09-14T15:16:57.770Z,14.46
2022-09-14T15:19:24.570Z,14.37
2022-09-14T15:21:50.995Z,14.49
2022-09-14T15:24:17.319Z,14.62
2022-09-14T15:26:43.657Z,14.73
2022-09-14T15:29:10.945Z,14.86
2022-09-14T15:31:37.367Z,14.72
2022-09-14T15:34:03.701Z,14.74
2022-09-14T15:36:35.816Z,14.81
2022-09-14T15:39:02.247Z,14.89
2022-09-14T15:41:28.595Z,14.97
2022-09-14T15:43:54.919Z,15.07
2022-09-14T15:46:21.275Z,15.06
2022-09-14T15:48:47.604Z,14.84
2022-09-14T15:51:13.952Z,14.89
2022-09-14T15:53:40.312Z,15.07
2022-09-14T15:56:13.066Z,15.23
2022-09-14T15:58:39.401Z,15.40
2022-09-14T16:01:09.664Z,15.76
2022-09-14T16:03:36.028Z,16.03
2022-09-14T16:06:02.385Z,16.02
2022-09-14T16:08:28.785Z,15.63
2022-09-14T16:10:59.008Z,15.46
2022-09-14T16:13:25.366Z,15.71
2022-09-14T16:15:56.681Z,16.11
2022-09-14T16:18:25.353Z,16.22
2022-09-14T16:20:51.741Z,16.44
2022-09-14T16:23:18.070Z,16.53
2022-09-14T16:25:44.451Z,16.79
2022-09-14T16:28:10.867Z,17.03
2022-09-14T16:30:37.352Z,16.98
2022-09-14T16:33:03.732Z,16.42
2022-09-14T16:35:30.091Z,16.22
2022-09-14T16:37:56.429Z,15.81
2022-09-14T16:40:22.833Z,15.57
2022-09-14T16:42:50.861Z,15.66
2022-09-14T16:45:17.233Z,15.45
2022-09-14T16:47:44.551Z,15.30
2022-09-14T16:50:10.873Z,15.07
2022-09-14T16:52:37.205Z,14.91
2022-09-14T16:55:03.602Z,14.83
2022-09-14T16:57:29.984Z,14.90
2022-09-14T16:59:56.333Z,15.07
2022-09-14T17:02:22.813Z,15.09
2022-09-14T17:04:49.214Z,15.07
2022-09-14T17:07:15.595Z,14.91
2022-09-14T17:09:42.020Z,14.73
2022-09-14T17:12:08.549Z,14.69
2022-09-14T17:14:34.929Z,14.59
2022-09-14T17:17:01.281Z,14.78
2022-09-14T17:19:27.665Z,14.79
2022-09-14T17:21:54.173Z,14.70
2022-09-14T17:24:20.731Z,14.92
2022-09-14T17:26:47.211Z,14.54
2022-09-14T17:32:36.013Z,14.61
2022-09-14T17:35:02.802Z,14.67
2022-09-14T17:37:29.639Z,14.60
2022-09-14T17:40:02.116Z,14.19
2022-09-14T17:42:28.455Z,13.82
2022-09-14T17:44:54.843Z,13.83
2022-09-14T17:47:21.875Z,13.77
2022-09-14T17:49:48.277Z,13.80
2022-09-14T17:52:14.653Z,13.80
2022-09-14T17:54:41.460Z,13.90
2022-09-14T17:57:07.849Z,13.72
2022-09-14T17:59:34.221Z,13.62
2022-09-14T18:02:00.614Z,13.57
2022-09-14T18:04:26.962Z,13.63
2022-09-14T18:06:53.280Z,13.56
2022-09-14T18:09:20.529Z,13.63
2022-09-14T18:11:46.923Z,13.74
2022-09-14T18:14:13.626Z,13.78
2022-09-14T18:16:40.202Z,13.83
2022-09-14T18:19:06.535Z,13.87
2022-09-14T18:21:32.864Z,13.92
2022-09-14T18:23:59.181Z,13.80
2022-09-14T18:26:25.496Z,13.75
2022-09-14T18:28:53.421Z,13.85
2022-09-14T18:31:20.043Z,13.92
2022-09-14T18:33:47.142Z,13.89
2022-09-14T18:36:15.094Z,14.00
2022-09-14T18:38:41.604Z,14.05
2022-09-14T18:41:08.263Z,13.94
2022-09-14T18:43:34.642Z,13.85
2022-09-14T18:46:02.485Z,13.84
2022-09-14T18:48:29.018Z,13.95
2022-09-14T18:50:55.347Z,14.05
2022-09-14T18:53:21.666Z,14.28
2022-09-14T18:55:48.154Z,14.44
2022-09-14T18:58:14.477Z,14.38
2022-09-14T19:00:47.489Z,14.59
2022-09-14T19:03:13.880Z,14.66
2022-09-14T19:05:41.006Z,14.80
2022-09-14T19:08:07.998Z,14.82
2022-09-14T19:10:37.648Z,14.96
2022-09-14T19:13:04.454Z,15.10
2022-09-14T19:15:32.732Z,15.25
2022-09-14T19:17:59.270Z,15.48
2022-09-14T19:20:31.296Z,15.67
2022-09-14T19:23:09.676Z,15.66
2022-09-14T19:25:39.199Z,15.68
2022-09-14T19:28:05.605Z,15.71
2022-09-14T19:30:32.354Z,15.59
2022-09-14T19:32:59.554Z,15.70
2022-09-14T19:35:26.604Z,15.94
2022-09-14T19:37:52.945Z,15.83
2022-09-14T19:40:19.733Z,15.64
2022-09-14T19:42:46.178Z,15.58
2022-09-14T19:45:14.832Z,15.37
2022-09-14T19:47:41.161Z,15.24
2022-09-14T19:50:09.103Z,15.43
2022-09-14T19:52:35.432Z,15.28
2022-09-14T19:55:01.745Z,15.22
2022-09-14T19:57:28.106Z,15.07
2022-09-14T19:59:54.419Z,15.09
2022-09-14T20:02:20.942Z,15.14
2022-09-14T20:04:47.352Z,14.97
2022-09-14T20:07:13.683Z,15.09
2022-09-14T20:09:39.995Z,15.15
2022-09-14T20:12:06.324Z,15.40
2022-09-14T20:14:32.644Z,15.52
2022-09-14T20:16:59.086Z,15.46
2022-09-14T20:19:26.516Z,15.27
2022-09-14T20:21:53.091Z,14.97
2022-09-14T20:24:20.411Z,14.95
2022-09-14T20:26:47.179Z,14.81
2022-09-14T20:29:13.584Z,14.89
2022-09-14T20:31:39.903Z,14.95
2022-09-14T20:34:06.239Z,14.95
2022-09-14T20:36:32.575Z,14.98
2022-09-14T20:38:59.403Z,14.95
2022-09-14T20:41:27.109Z,14.43
2022-09-14T20:43:53.538Z,14.37
2022-09-14T20:46:23.419Z,14.16
2022-09-14T20:48:49.855Z,14.00
2022-09-14T20:54:02.972Z,13.71
2022-09-14T20:56:31.070Z,13.75
2022-09-14T20:58:58.035Z,13.73
2022-09-14T21:01:27.863Z,13.82
2022-09-14T21:03:54.362Z,13.83
2022-09-14T21:06:21.857Z,13.64
2022-09-14T21:08:48.199Z,13.44
2022-09-14T21:11:12.011Z,13.97
2022-09-14T21:11:15.018Z,13.52
2022-09-14T21:13:41.385Z,13.24
2022-09-14T21:16:11.545Z,13.40
2022-09-14T21:18:37.909Z,13.47
2022-09-14T21:21:07.657Z,13.38
2022-09-14T21:23:33.975Z,13.10
2022-09-14T21:26:00.314Z,13.19
2022-09-14T21:28:26.648Z,13.11
2022-09-14T21:30:53.038Z,13.01
2022-09-14T21:33:19.447Z,12.90
2022-09-14T21:35:45.758Z,12.62
2022-09-14T21:38:12.071Z,12.56
2022-09-14T21:40:38.706Z,12.63
2022-09-14T21:43:05.036Z,12.52
2022-09-14T21:45:31.437Z,12.51
2022-09-14T21:47:57.754Z,12.35
2022-09-14T21:50:24.069Z,12.50
2022-09-14T21:52:50.397Z,12.57
2022-09-14T21:55:16.710Z,12.61
2022-09-14T21:57:43.054Z,12.61
2022-09-14T22:00:09.932Z,12.62
2022-09-14T22:02:36.311Z,12.77
2022-09-14T22:05:03.809Z,12.83
2022-09-14T22:07:30.153Z,12.94
2022-09-14T22:09:56.847Z,12.99
2022-09-14T22:12:23.251Z,13.06
2022-09-14T22:14:49.728Z,13.09
2022-09-14T22:17:16.396Z,13.11
2022-09-14T22:19:42.759Z,13.10
2022-09-14T22:22:09.346Z,13.16
2022-09-14T22:24:38.288Z,13.24
2022-09-14T22:27:06.194Z,13.27
2022-09-14T22:29:32.891Z,13.18
2022-09-14T22:32:00.115Z,13.16
2022-09-14T22:34:26.537Z,13.16
2022-09-14T22:36:53.201Z,13.10
2022-09-14T22:39:19.525Z,13.07
2022-09-14T22:41:45.931Z,13.01
2022-09-14T22:44:12.304Z,12.93
2022-09-14T22:46:38.826Z,12.93
2022-09-14T22:49:05.167Z,12.81
2022-09-14T22:51:31.511Z,12.85
2022-09-14T22:53:57.995Z,12.94
2022-09-14T22:56:25.364Z,12.97
2022-09-14T22:58:51.799Z,13.02
2022-09-14T23:01:19.236Z,12.90
2022-09-14T23:03:45.583Z,12.78
2022-09-14T23:06:11.915Z,12.61
2022-09-14T23:08:38.329Z,12.40
2022-09-14T23:11:05.496Z,12.41
2022-09-14T23:13:32.724Z,12.33
2022-09-14T23:16:01.044Z,12.33
2022-09-14T23:18:27.884Z,12.37
2022-09-14T23:20:54.217Z,12.42
2022-09-14T23:23:20.535Z,12.59
2022-09-14T23:25:47.007Z,12.52
2022-09-14T23:28:13.353Z,12.48
2022-09-14T23:30:39.819Z,12.40
2022-09-14T23:33:06.653Z,12.37
2022-09-14T23:35:36.999Z,12.39
2022-09-14T23:38:04.133Z,12.32
2022-09-14T23:40:30.541Z,12.37
2022-09-14T23:42:56.899Z,12.26
2022-09-14T23:45:23.215Z,12.27
2022-09-14T23:47:49.567Z,12.26
2022-09-14T23:50:15.884Z,12.29
2022-09-14T23:52:42.269Z,12.25
2022-09-14T23:55:08.739Z,12.10
2022-09-14T23:57:36.548Z,12.15
